KEUG

Mahlon Sweet Field Airport

Eugene, Oregon, USA
METAR KEUG 172054Z 22017KT 7SM -RA FEW018 BKN025 OVC035 11/09 A2997 RMK AO2 PK WND 20030/2038 RAB52 SLP149 P0000 60000 T01110089 58034
Observed Flight Rules
Feb-17 @ 20:54 UTC (36 minutes ago) Marginal Visual Flight Rules
Wind Visibility Clouds Conditions
220° at 17 knots 7 miles
  • Few at 1,800' AGL
  • Broken at 2,500' AGL
  • Overcast at 3,500' AGL
  • Light Rain
Temperatures Readings Precipitation
Current 11°C / 52°F
Dewpoint 9°C / 48°F
Humidity 88%
Altimeter 29.97" Hg
Pressure 1014.9 hPa
Elevation 114
Current Rain 0.005
METAR KEUG 172054Z 22017KT 7SM -RA FEW018 BKN025 OVC035 11/09 A2997 RMK AO2 PK WND 20030/2038 RAB52 SLP149 P0000 60000 T01110089 58034
Observed Flight Rules
Feb-17 @ 20:54 UTC
(36 minutes ago)
MVFR
Wind Visibility
220° at 17 knots 7 miles
Clouds
  • Few at 1,800' AGL
  • Broken at 2,500' AGL
  • Overcast at 3,500' AGL
Conditions
  • Light Rain
Temperature Dewpoint
11°C / 52°F 9°C / 48°F
Humidity Altimeter Pressure
88% 29.97" Hg 1014.9 hPa
Current Rain
0.005